Terminal Aerodrome Forecast
Issued by NWS

Home | Current Version | Previous Version | Text Only | Print | Product List | Glossary On
Versions: 1 2 3 4 5 6 7 8 9 10 11 12 13 14 15 16 17 18 19 20 21 22 23 24 25
000
FTUS41 KBTV 230306 AAB
TAFPBG
TAF AMD
KPBG 230306Z 2303/2324 34007KT 6SM BR OVC010
      TEMPO 2303/2307 2SM BR OVC005
     FM230700 VRB04KT 5SM BR OVC010
     FM231200 11005KT P6SM OVC020
     FM231800 11008KT P6SM OVC030=

USA.gov is the U.S. government's official web portal to all federal, state and local government web resources and services.